sensor_id;sensor_type;location;lat;lon;timestamp;P1;durP1;ratioP1;P2;durP2;ratioP2
18473;SDS011;30265;52.408;13.500;2023-07-13T00:09:54;8.30;;;3.47;;
18473;SDS011;30265;52.408;13.500;2023-07-13T00:20:20;8.38;;;3.47;;
18473;SDS011;30265;52.408;13.500;2023-07-13T00:30:44;6.82;;;3.65;;
18473;SDS011;30265;52.408;13.500;2023-07-13T00:41:07;15.63;;;4.03;;
18473;SDS011;30265;52.408;13.500;2023-07-13T00:51:32;6.45;;;3.53;;
18473;SDS011;30265;52.408;13.500;2023-07-13T01:01:58;11.48;;;4.32;;
18473;SDS011;30265;52.408;13.500;2023-07-13T01:12:21;9.02;;;4.40;;
18473;SDS011;30265;52.408;13.500;2023-07-13T01:22:45;7.47;;;4.10;;
18473;SDS011;30265;52.408;13.500;2023-07-13T01:33:07;8.90;;;4.18;;
18473;SDS011;30265;52.408;13.500;2023-07-13T01:43:32;11.45;;;4.38;;
18473;SDS011;30265;52.408;13.500;2023-07-13T01:53:54;11.25;;;4.55;;
18473;SDS011;30265;52.408;13.500;2023-07-13T02:04:17;6.57;;;3.90;;
18473;SDS011;30265;52.408;13.500;2023-07-13T02:14:39;8.65;;;4.43;;
18473;SDS011;30265;52.408;13.500;2023-07-13T02:25:03;6.05;;;4.05;;
18473;SDS011;30265;52.408;13.500;2023-07-13T02:35:26;8.45;;;4.60;;
18473;SDS011;30265;52.408;13.500;2023-07-13T02:45:49;6.50;;;4.53;;
18473;SDS011;30265;52.408;13.500;2023-07-13T02:56:10;7.38;;;3.88;;
18473;SDS011;30265;52.408;13.500;2023-07-13T03:06:37;6.53;;;3.97;;
18473;SDS011;30265;52.408;13.500;2023-07-13T03:17:02;6.97;;;4.28;;
18473;SDS011;30265;52.408;13.500;2023-07-13T03:27:28;7.93;;;4.47;;
18473;SDS011;30265;52.408;13.500;2023-07-13T03:37:51;6.82;;;4.20;;
18473;SDS011;30265;52.408;13.500;2023-07-13T03:48:15;6.25;;;4.18;;
18473;SDS011;30265;52.408;13.500;2023-07-13T03:58:37;8.05;;;4.18;;
18473;SDS011;30265;52.408;13.500;2023-07-13T04:09:08;8.55;;;3.67;;
18473;SDS011;30265;52.408;13.500;2023-07-13T04:19:31;7.37;;;3.90;;
18473;SDS011;30265;52.408;13.500;2023-07-13T04:29:54;7.30;;;4.28;;
18473;SDS011;30265;52.408;13.500;2023-07-13T04:40:16;8.23;;;3.97;;
18473;SDS011;30265;52.408;13.500;2023-07-13T04:50:39;5.03;;;3.83;;
18473;SDS011;30265;52.408;13.500;2023-07-13T05:01:01;9.20;;;4.55;;
18473;SDS011;30265;52.408;13.500;2023-07-13T05:11:26;7.32;;;3.88;;
18473;SDS011;30265;52.408;13.500;2023-07-13T05:21:48;7.68;;;3.65;;
18473;SDS011;30265;52.408;13.500;2023-07-13T05:32:10;7.20;;;3.35;;
18473;SDS011;30265;52.408;13.500;2023-07-13T05:42:34;8.85;;;3.33;;
18473;SDS011;30265;52.408;13.500;2023-07-13T05:52:57;3.65;;;2.55;;
18473;SDS011;30265;52.408;13.500;2023-07-13T06:03:22;3.80;;;2.72;;
18473;SDS011;30265;52.408;13.500;2023-07-13T06:13:54;3.42;;;2.10;;
18473;SDS011;30265;52.408;13.500;2023-07-13T06:24:21;3.80;;;2.42;;
18473;SDS011;30265;52.408;13.500;2023-07-13T06:34:44;5.32;;;2.22;;
18473;SDS011;30265;52.408;13.500;2023-07-13T06:45:22;5.68;;;2.28;;
18473;SDS011;30265;52.408;13.500;2023-07-13T07:07:38;2.47;;;2.00;;
18473;SDS011;30265;52.408;13.500;2023-07-13T07:18:27;6.95;;;2.33;;
18473;SDS011;30265;52.408;13.500;2023-07-13T07:28:49;5.30;;;2.20;;
18473;SDS011;30265;52.408;13.500;2023-07-13T07:39:23;3.60;;;2.00;;
18473;SDS011;30265;52.408;13.500;2023-07-13T07:49:47;4.07;;;1.58;;
18473;SDS011;30265;52.408;13.500;2023-07-13T08:00:11;4.20;;;1.73;;
18473;SDS011;30265;52.408;13.500;2023-07-13T08:10:44;7.40;;;2.15;;
18473;SDS011;30265;52.408;13.500;2023-07-13T08:21:10;5.88;;;1.80;;
18473;SDS011;30265;52.408;13.500;2023-07-13T08:31:35;4.38;;;1.88;;
18473;SDS011;30265;52.408;13.500;2023-07-13T08:42:03;3.58;;;2.00;;
18473;SDS011;30265;52.408;13.500;2023-07-13T08:52:35;3.25;;;1.80;;
18473;SDS011;30265;52.408;13.500;2023-07-13T09:03:00;2.55;;;1.70;;
18473;SDS011;30265;52.408;13.500;2023-07-13T09:13:26;4.00;;;2.58;;
18473;SDS011;30265;52.408;13.500;2023-07-13T09:24:01;3.20;;;1.93;;
18473;SDS011;30265;52.408;13.500;2023-07-13T09:34:42;4.00;;;2.25;;
18473;SDS011;30265;52.408;13.500;2023-07-13T09:45:08;4.00;;;2.15;;
18473;SDS011;30265;52.408;13.500;2023-07-13T09:55:45;5.68;;;2.33;;
18473;SDS011;30265;52.408;13.500;2023-07-13T10:06:14;3.85;;;2.20;;
18473;SDS011;30265;52.408;13.500;2023-07-13T10:16:37;3.17;;;1.90;;
18473;SDS011;30265;52.408;13.500;2023-07-13T10:27:05;4.72;;;2.88;;
18473;SDS011;30265;52.408;13.500;2023-07-13T10:37:36;4.10;;;3.20;;
18473;SDS011;30265;52.408;13.500;2023-07-13T10:48:05;3.92;;;2.80;;
18473;SDS011;30265;52.408;13.500;2023-07-13T10:58:39;6.72;;;3.40;;
18473;SDS011;30265;52.408;13.500;2023-07-13T11:20:07;6.00;;;3.03;;
18473;SDS011;30265;52.408;13.500;2023-07-13T11:30:34;6.85;;;3.28;;
18473;SDS011;30265;52.408;13.500;2023-07-13T11:41:01;5.50;;;2.50;;
18473;SDS011;30265;52.408;13.500;2023-07-13T11:51:37;4.57;;;2.40;;
18473;SDS011;30265;52.408;13.500;2023-07-13T12:02:01;4.30;;;2.42;;
18473;SDS011;30265;52.408;13.500;2023-07-13T12:12:31;3.85;;;2.33;;
18473;SDS011;30265;52.408;13.500;2023-07-13T12:22:54;7.57;;;3.15;;
18473;SDS011;30265;52.408;13.500;2023-07-13T12:33:19;5.50;;;2.30;;
18473;SDS011;30265;52.408;13.500;2023-07-13T12:43:41;4.65;;;2.50;;
18473;SDS011;30265;52.408;13.500;2023-07-13T12:54:11;7.43;;;2.33;;
18473;SDS011;30265;52.408;13.500;2023-07-13T13:04:39;5.28;;;2.33;;
18473;SDS011;30265;52.408;13.500;2023-07-13T13:15:05;4.70;;;2.63;;
18473;SDS011;30265;52.408;13.500;2023-07-13T13:25:28;3.42;;;1.73;;
18473;SDS011;30265;52.408;13.500;2023-07-13T13:35:51;2.50;;;1.90;;
18473;SDS011;30265;52.408;13.500;2023-07-13T13:46:17;4.50;;;2.03;;
18473;SDS011;30265;52.408;13.500;2023-07-13T13:56:43;2.80;;;1.70;;
18473;SDS011;30265;52.408;13.500;2023-07-13T14:07:07;6.47;;;2.28;;
18473;SDS011;30265;52.408;13.500;2023-07-13T14:17:36;2.83;;;1.60;;
18473;SDS011;30265;52.408;13.500;2023-07-13T14:28:10;4.38;;;1.95;;
18473;SDS011;30265;52.408;13.500;2023-07-13T14:38:54;5.95;;;1.80;;
18473;SDS011;30265;52.408;13.500;2023-07-13T14:49:21;5.93;;;1.80;;
18473;SDS011;30265;52.408;13.500;2023-07-13T14:59:47;2.72;;;1.30;;
18473;SDS011;30265;52.408;13.500;2023-07-13T15:10:13;4.85;;;1.50;;
18473;SDS011;30265;52.408;13.500;2023-07-13T15:20:44;3.38;;;1.17;;
18473;SDS011;30265;52.408;13.500;2023-07-13T15:31:21;3.50;;;1.60;;
18473;SDS011;30265;52.408;13.500;2023-07-13T15:41:56;4.22;;;1.60;;
18473;SDS011;30265;52.408;13.500;2023-07-13T15:52:20;3.05;;;1.77;;
18473;SDS011;30265;52.408;13.500;2023-07-13T16:02:50;2.35;;;1.50;;
18473;SDS011;30265;52.408;13.500;2023-07-13T16:13:15;2.78;;;1.42;;
18473;SDS011;30265;52.408;13.500;2023-07-13T16:23:40;3.30;;;1.65;;
18473;SDS011;30265;52.408;13.500;2023-07-13T16:34:24;3.28;;;1.55;;
18473;SDS011;30265;52.408;13.500;2023-07-13T16:44:49;3.80;;;1.70;;
18473;SDS011;30265;52.408;13.500;2023-07-13T16:55:12;3.00;;;1.70;;
18473;SDS011;30265;52.408;13.500;2023-07-13T17:05:38;5.00;;;1.58;;
18473;SDS011;30265;52.408;13.500;2023-07-13T17:16:04;2.45;;;1.52;;
18473;SDS011;30265;52.408;13.500;2023-07-13T17:26:30;6.00;;;1.95;;
18473;SDS011;30265;52.408;13.500;2023-07-13T17:36:55;6.30;;;2.10;;
18473;SDS011;30265;52.408;13.500;2023-07-13T17:47:23;3.63;;;1.55;;
18473;SDS011;30265;52.408;13.500;2023-07-13T17:57:47;3.85;;;2.10;;
18473;SDS011;30265;52.408;13.500;2023-07-13T18:08:17;3.92;;;1.80;;
18473;SDS011;30265;52.408;13.500;2023-07-13T18:18:42;4.65;;;2.53;;
18473;SDS011;30265;52.408;13.500;2023-07-13T18:29:07;8.20;;;2.63;;
18473;SDS011;30265;52.408;13.500;2023-07-13T18:39:29;4.93;;;2.20;;
18473;SDS011;30265;52.408;13.500;2023-07-13T18:49:52;8.32;;;2.95;;
18473;SDS011;30265;52.408;13.500;2023-07-13T19:00:16;5.82;;;2.63;;
18473;SDS011;30265;52.408;13.500;2023-07-13T19:10:44;3.45;;;2.28;;
18473;SDS011;30265;52.408;13.500;2023-07-13T19:21:07;9.55;;;2.33;;
18473;SDS011;30265;52.408;13.500;2023-07-13T19:31:36;6.18;;;2.53;;
18473;SDS011;30265;52.408;13.500;2023-07-13T19:41:59;5.95;;;2.55;;
18473;SDS011;30265;52.408;13.500;2023-07-13T19:52:26;6.15;;;2.40;;
18473;SDS011;30265;52.408;13.500;2023-07-13T20:02:50;8.07;;;2.90;;
18473;SDS011;30265;52.408;13.500;2023-07-13T20:13:17;5.28;;;2.70;;
18473;SDS011;30265;52.408;13.500;2023-07-13T20:23:41;8.48;;;2.95;;
18473;SDS011;30265;52.408;13.500;2023-07-13T20:34:08;6.40;;;2.53;;
18473;SDS011;30265;52.408;13.500;2023-07-13T20:44:39;4.60;;;2.75;;
18473;SDS011;30265;52.408;13.500;2023-07-13T20:55:08;5.57;;;3.10;;
18473;SDS011;30265;52.408;13.500;2023-07-13T21:05:34;6.05;;;3.40;;
18473;SDS011;30265;52.408;13.500;2023-07-13T21:15:59;7.47;;;3.22;;
18473;SDS011;30265;52.408;13.500;2023-07-13T21:26:30;4.30;;;2.67;;
18473;SDS011;30265;52.408;13.500;2023-07-13T21:36:53;4.78;;;2.50;;
18473;SDS011;30265;52.408;13.500;2023-07-13T21:47:19;5.15;;;2.80;;
18473;SDS011;30265;52.408;13.500;2023-07-13T21:57:46;9.02;;;3.03;;
18473;SDS011;30265;52.408;13.500;2023-07-13T22:08:10;4.80;;;3.22;;
18473;SDS011;30265;52.408;13.500;2023-07-13T22:18:34;6.97;;;3.20;;
18473;SDS011;30265;52.408;13.500;2023-07-13T22:29:00;6.18;;;3.40;;
18473;SDS011;30265;52.408;13.500;2023-07-13T22:39:30;5.70;;;3.05;;
18473;SDS011;30265;52.408;13.500;2023-07-13T22:49:53;8.13;;;3.53;;
18473;SDS011;30265;52.408;13.500;2023-07-13T23:00:17;5.63;;;3.17;;
18473;SDS011;30265;52.408;13.500;2023-07-13T23:10:40;10.70;;;3.33;;
18473;SDS011;30265;52.408;13.500;2023-07-13T23:21:04;5.07;;;2.92;;
18473;SDS011;30265;52.408;13.500;2023-07-13T23:31:28;5.72;;;3.85;;
18473;SDS011;30265;52.408;13.500;2023-07-13T23:41:53;5.78;;;3.22;;
18473;SDS011;30265;52.408;13.500;2023-07-13T23:52:15;9.00;;;3.15;;
